Burnett, Washington
Current Conditions -  °F | °C
As of 11:58 AM on Saturday 20 Dec 2014 (Local Time) from KTCM Reporting Station
Light Rain Light Rain  
Wind Chill: 44°   Ceiling: 3200
Heat Index: 48°   Visibility: 7mi
Dew Point: 48°   Wind: 8mph
Humidity: 99%   Direction: 150°SSE
Pressure: 29.57"   Gusts: NA
Location:  46.892°N, 121.738°W
Report Text: KTCM 201958Z AUTO 15007KT 7SM -RA OVC032 09/09 A2957 RMK AO2 SLP018 P0011 T00890088
Loading
Personal Weather Stations






























Interactive Weather Map New forecast layout! Learn more

10-Day Weather Forecast

Advertisements
Track Severe Weather on mobile